Time;durP1;ratioP1;P1;durP2;ratioP2;P2;SDS_P1;SDS_P2;PMS_P1;PMS_P2;Temp;Humidity;BMP_temperature;BMP_pressure;BME280_temperature;BME280_humidity;BME280_pressure;Samples;Min_cycle;Max_cycle;Signal;HPM_P1;HPM_P2
2022/01/03 00:01:25;;;;;;;3.17;1.27;;;12.30;67.80;;;;;;5004876;28;20034;-68
2022/01/03 00:03:51;;;;;;;2.05;1.00;;;12.30;67.90;;;;;;5006048;28;20109;-68
2022/01/03 00:06:19;;;;;;;3.10;1.20;;;12.30;67.90;;;;;;5006132;28;20164;-68
2022/01/03 00:08:46;;;;;;;2.08;0.90;;;12.30;68.80;;;;;;5005371;28;20421;-67
2022/01/03 00:11:14;;;;;;;2.35;0.80;;;12.30;68.00;;;;;;5004254;28;20497;-67
2022/01/03 00:13:45;;;;;;;2.03;1.10;;;12.30;68.00;;;;;;5005908;28;20033;-68
2022/01/03 00:16:11;;;;;;;3.60;0.90;;;12.30;68.10;;;;;;5006519;28;20447;-67
2022/01/03 00:18:37;;;;;;;2.92;0.88;;;12.30;68.10;;;;;;5006727;28;20125;-67
2022/01/03 00:21:12;;;;;;;3.13;1.08;;;12.30;68.10;;;;;;5005555;28;20402;-68
2022/01/03 00:23:40;;;;;;;2.50;0.80;;;12.30;68.10;;;;;;5009683;28;20041;-68
2022/01/03 00:26:08;;;;;;;2.78;1.00;;;12.30;68.20;;;;;;5008160;28;20046;-67
2022/01/03 00:28:39;;;;;;;3.28;0.88;;;12.20;68.10;;;;;;5007164;28;20037;-67
2022/01/03 00:31:05;;;;;;;1.88;0.82;;;12.20;68.10;;;;;;5008231;28;20034;-68
2022/01/03 00:33:32;;;;;;;1.35;0.80;;;12.20;69.10;;;;;;5010319;28;20042;-68
2022/01/03 00:36:00;;;;;;;2.25;0.90;;;12.30;68.30;;;;;;5008811;28;20026;-68
2022/01/03 00:38:32;;;;;;;2.45;0.80;;;12.30;68.20;;;;;;5004877;28;20106;-68
2022/01/03 00:40:59;;;;;;;3.63;0.80;;;12.30;68.10;;;;;;5008730;28;20172;-68
2022/01/03 00:43:26;;;;;;;2.90;0.90;;;12.30;68.20;;;;;;5010207;28;20031;-68
2022/01/03 00:45:54;;;;;;;3.22;0.95;;;12.30;68.10;;;;;;5009805;28;20401;-68
2022/01/03 00:48:20;;;;;;;0.90;0.60;;;12.20;68.00;;;;;;5008069;28;20030;-66
2022/01/03 00:50:46;;;;;;;2.47;0.82;;;12.30;68.10;;;;;;5006895;28;20400;-67
2022/01/03 00:53:13;;;;;;;4.00;0.65;;;12.30;68.00;;;;;;5007101;28;20727;-68
2022/01/03 00:56:04;;;;;;;4.00;0.80;;;12.30;68.00;;;;;;5008709;28;20034;-68
2022/01/03 00:58:45;;;;;;;3.22;0.70;;;12.30;68.00;;;;;;5008337;28;20029;-68
2022/01/03 01:01:12;;;;;;;5.50;0.85;;;12.20;67.80;;;;;;5003999;28;20038;-68
2022/01/03 01:03:40;;;;;;;2.05;0.60;;;12.30;68.00;;;;;;5009560;28;20037;-68
2022/01/03 01:06:08;;;;;;;2.70;0.70;;;12.30;67.90;;;;;;5002563;28;20034;-68
2022/01/03 01:08:35;;;;;;;1.40;0.55;;;12.30;68.00;;;;;;5001174;28;20030;-68
2022/01/03 01:11:07;;;;;;;3.17;0.70;;;12.30;68.00;;;;;;5004215;28;20939;-68
2022/01/03 01:13:35;;;;;;;3.10;0.60;;;12.30;67.90;;;;;;5004441;28;20081;-68
2022/01/03 01:16:05;;;;;;;2.38;0.55;;;12.30;68.00;;;;;;5007499;28;20390;-69
2022/01/03 01:18:35;;;;;;;3.20;0.82;;;12.30;67.90;;;;;;5007564;28;20026;-68
2022/01/03 01:21:01;;;;;;;1.42;0.75;;;12.30;67.90;;;;;;5001238;28;20532;-68
2022/01/03 01:23:27;;;;;;;2.17;0.75;;;12.30;67.90;;;;;;5006492;28;20033;-67
2022/01/03 01:28:18;;;;;;;2.47;0.57;;;12.30;67.90;;;;;;5003856;28;20030;-68
2022/01/03 01:30:45;;;;;;;4.30;0.85;;;12.30;67.90;;;;;;4999901;28;20052;-67
2022/01/03 01:33:16;;;;;;;3.50;0.88;;;12.30;67.90;;;;;;5004097;28;20030;-67
2022/01/03 01:35:48;;;;;;;2.83;0.75;;;12.30;67.80;;;;;;4995619;28;20035;-65
2022/01/03 01:38:16;;;;;;;2.97;0.57;;;12.30;67.90;;;;;;5005472;28;20034;-67
2022/01/03 01:40:47;;;;;;;3.75;0.73;;;12.30;67.90;;;;;;5001043;28;20030;-68
2022/01/03 01:43:17;;;;;;;1.67;0.55;;;12.20;67.80;;;;;;5007405;28;20038;-68
2022/01/03 01:45:48;;;;;;;2.22;0.60;;;12.30;67.80;;;;;;5001563;28;20030;-67
2022/01/03 01:48:15;;;;;;;4.57;0.98;;;12.30;67.80;;;;;;5008323;28;20379;-68
2022/01/03 01:50:42;;;;;;;2.58;0.73;;;12.20;67.70;;;;;;5006074;28;20040;-68
2022/01/03 01:53:09;;;;;;;4.72;0.65;;;12.30;67.80;;;;;;5002204;28;20026;-67
2022/01/03 01:55:40;;;;;;;1.52;0.65;;;12.20;67.70;;;;;;5006469;28;20109;-68
2022/01/03 01:58:29;;;;;;;2.67;0.70;;;12.20;67.70;;;;;;5003926;28;20037;-68
2022/01/03 02:01:05;;;;;;;2.65;0.75;;;12.20;67.60;;;;;;5001399;28;20172;-67
2022/01/03 02:03:38;;;;;;;2.40;0.90;;;12.20;67.60;;;;;;5005675;28;20037;-68
2022/01/03 02:06:25;;;;;;;3.13;0.85;;;12.20;67.50;;;;;;5020311;28;20042;-68
2022/01/03 02:09:08;;;;;;;2.15;0.52;;;12.20;67.70;;;;;;5003140;28;20042;-68
2022/01/03 02:11:52;;;;;;;4.15;0.80;;;12.20;67.60;;;;;;4998066;28;20505;-67
2022/01/03 02:14:20;;;;;;;1.88;0.63;;;12.20;67.50;;;;;;5017767;28;20841;-68
2022/01/03 02:16:47;;;;;;;2.53;0.80;;;12.20;67.70;;;;;;5004962;28;20038;-68
2022/01/03 02:19:13;;;;;;;3.15;0.70;;;12.20;67.80;;;;;;5005209;28;20165;-68
2022/01/03 02:21:39;;;;;;;3.75;0.90;;;12.20;67.80;;;;;;5003845;28;20033;-67
2022/01/03 02:24:05;;;;;;;3.63;0.90;;;12.20;67.80;;;;;;4999897;28;20034;-68
2022/01/03 02:26:32;;;;;;;2.70;0.63;;;12.20;67.80;;;;;;5002667;28;20030;-68
2022/01/03 02:28:58;;;;;;;2.85;0.75;;;12.10;67.80;;;;;;5005359;28;20046;-68
2022/01/03 02:31:24;;;;;;;2.08;0.60;;;12.20;67.90;;;;;;5000271;28;20033;-68
2022/01/03 02:33:50;;;;;;;3.00;0.80;;;12.10;67.80;;;;;;5004413;28;20437;-67
2022/01/03 02:36:17;;;;;;;3.80;0.70;;;12.20;68.80;;;;;;5002228;28;20034;-68
2022/01/03 02:38:43;;;;;;;2.60;0.73;;;12.10;68.00;;;;;;4997586;28;20038;-67
2022/01/03 02:41:09;;;;;;;5.35;0.80;;;12.10;67.90;;;;;;5003233;28;20042;-68
2022/01/03 02:43:35;;;;;;;2.20;0.70;;;12.10;68.00;;;;;;5002330;28;20052;-68
2022/01/03 02:46:01;;;;;;;3.08;0.90;;;12.10;68.00;;;;;;5005239;28;20026;-68
2022/01/03 02:48:27;;;;;;;4.72;1.05;;;12.10;68.00;;;;;;5006295;28;20042;-68
2022/01/03 02:50:54;;;;;;;2.38;0.52;;;12.10;68.00;;;;;;5003669;28;20508;-68
2022/01/03 02:53:20;;;;;;;3.13;0.70;;;12.10;68.00;;;;;;5001515;28;20707;-68
2022/01/03 02:55:46;;;;;;;1.95;0.90;;;12.10;67.90;;;;;;5005541;28;20108;-68
2022/01/03 02:58:11;;;;;;;4.25;0.85;;;12.10;67.80;;;;;;5005073;28;20061;-68
2022/01/03 03:00:47;;;;;;;3.50;0.70;;;12.10;68.00;;;;;;5003413;28;20026;-68
2022/01/03 03:03:14;;;;;;;5.47;0.80;;;12.10;67.80;;;;;;5006948;28;20026;-68
2022/01/03 03:05:40;;;;;;;2.75;0.50;;;12.10;67.80;;;;;;5004595;28;20037;-68
2022/01/03 03:08:06;;;;;;;2.13;0.82;;;12.10;67.90;;;;;;5005488;28;20034;-67
2022/01/03 03:10:32;;;;;;;2.83;0.82;;;12.10;67.70;;;;;;5003121;28;20410;-68
2022/01/03 03:12:57;;;;;;;2.63;0.70;;;12.10;67.70;;;;;;5000109;28;20034;-68
2022/01/03 03:15:23;;;;;;;4.28;0.70;;;12.10;67.80;;;;;;5004407;28;20387;-68
2022/01/03 03:17:49;;;;;;;2.75;0.60;;;12.10;67.60;;;;;;5006304;28;20040;-68
2022/01/03 03:20:16;;;;;;;2.67;0.70;;;12.10;67.60;;;;;;5005587;28;20040;-68
2022/01/03 03:22:42;;;;;;;4.22;0.90;;;12.10;67.60;;;;;;4997297;28;20038;-68
2022/01/03 03:25:10;;;;;;;4.53;0.80;;;12.10;67.50;;;;;;4997496;28;20049;-67
2022/01/03 03:27:43;;;;;;;2.63;0.60;;;12.10;67.50;;;;;;4996677;28;20707;-68
2022/01/03 03:30:29;;;;;;;1.70;0.60;;;12.10;67.20;;;;;;4999143;28;20113;-68
2022/01/03 03:33:03;;;;;;;2.28;0.60;;;12.10;67.10;;;;;;4988320;28;20041;-68
2022/01/03 03:35:29;;;;;;;2.07;0.80;;;12.10;66.50;;;;;;4998262;28;20034;-66
2022/01/03 03:37:55;;;;;;;2.83;0.52;;;12.10;66.50;;;;;;5000663;28;20038;-68
2022/01/03 03:40:21;;;;;;;3.22;0.70;;;12.10;66.30;;;;;;5001678;28;20026;-68
2022/01/03 03:42:47;;;;;;;4.13;0.80;;;12.10;66.00;;;;;;5002051;28;20521;-68
2022/01/03 03:45:12;;;;;;;3.33;0.63;;;12.10;66.20;;;;;;5003098;28;20046;-68
2022/01/03 03:47:38;;;;;;;4.03;0.60;;;12.20;65.40;;;;;;5005515;28;20030;-68
2022/01/03 03:50:05;;;;;;;2.80;0.60;;;12.10;65.50;;;;;;5005290;28;20061;-68
2022/01/03 03:52:31;;;;;;;3.20;0.82;;;12.20;65.30;;;;;;5001998;28;20031;-68
2022/01/03 03:54:57;;;;;;;2.72;0.60;;;12.20;65.20;;;;;;4998411;28;20057;-68
2022/01/03 03:57:23;;;;;;;2.13;0.63;;;12.20;65.30;;;;;;5004652;28;20066;-68
2022/01/03 03:59:49;;;;;;;2.67;0.77;;;12.30;65.00;;;;;;5004850;28;20505;-68
2022/01/03 04:02:14;;;;;;;3.13;0.60;;;12.30;65.20;;;;;;5004000;28;20044;-68
2022/01/03 04:04:40;;;;;;;2.50;0.52;;;12.30;65.10;;;;;;5001970;28;20038;-68
2022/01/03 04:07:06;;;;;;;3.33;0.80;;;12.30;65.00;;;;;;5005245;28;20501;-68
2022/01/03 04:09:31;;;;;;;2.38;0.55;;;12.30;64.80;;;;;;5002284;28;20679;-67
2022/01/03 04:11:58;;;;;;;5.15;0.82;;;12.30;64.80;;;;;;4996230;28;20107;-67
2022/01/03 04:14:24;;;;;;;2.53;0.82;;;12.30;64.70;;;;;;5003313;28;20030;-68
2022/01/03 04:16:49;;;;;;;4.47;0.90;;;12.30;64.30;;;;;;5004605;28;20041;-68
2022/01/03 04:19:15;;;;;;;3.47;0.85;;;12.30;64.60;;;;;;5001679;28;20054;-66
2022/01/03 04:21:41;;;;;;;1.38;0.63;;;12.30;64.50;;;;;;5001062;28;20125;-68
2022/01/03 04:24:08;;;;;;;2.00;0.88;;;12.30;64.40;;;;;;5004857;28;20602;-68
2022/01/03 04:26:35;;;;;;;7.45;3.90;;;12.30;64.40;;;;;;5002966;28;20567;-68
2022/01/03 04:29:02;;;;;;;3.30;0.82;;;12.30;64.50;;;;;;5003099;28;20049;-68
2022/01/03 04:31:28;;;;;;;4.72;0.60;;;12.30;64.40;;;;;;5003602;28;20026;-68
2022/01/03 04:33:53;;;;;;;3.80;0.60;;;12.30;64.00;;;;;;5005029;28;20594;-67
2022/01/03 04:36:19;;;;;;;4.82;0.95;;;12.20;63.90;;;;;;5004945;28;20125;-67
2022/01/03 04:38:44;;;;;;;3.97;0.65;;;12.20;63.40;;;;;;5000684;28;20044;-68
2022/01/03 04:41:12;;;;;;;3.92;1.30;;;12.20;63.20;;;;;;4996741;28;20041;-68
2022/01/03 04:43:39;;;;;;;2.30;0.60;;;12.20;63.10;;;;;;5003920;28;20030;-68
2022/01/03 04:46:05;;;;;;;4.40;0.85;;;12.20;62.90;;;;;;5000090;28;20049;-67
2022/01/03 04:48:30;;;;;;;4.13;1.25;;;12.20;62.90;;;;;;5004378;28;20030;-67
2022/01/03 04:50:56;;;;;;;4.15;0.70;;;12.20;63.20;;;;;;5003800;28;20135;-68
2022/01/03 04:53:25;;;;;;;2.15;0.80;;;12.20;62.80;;;;;;5003703;28;20402;-68
2022/01/03 04:55:51;;;;;;;2.35;0.60;;;12.30;62.60;;;;;;5003196;28;20149;-68
2022/01/03 04:58:17;;;;;;;2.60;0.60;;;12.30;62.90;;;;;;5005540;28;20030;-68
2022/01/03 05:00:42;;;;;;;3.20;0.70;;;12.30;62.60;;;;;;5000721;28;20041;-68
2022/01/03 05:03:08;;;;;;;3.72;0.90;;;12.30;62.10;;;;;;5004549;28;20030;-68
2022/01/03 05:05:34;;;;;;;4.93;1.10;;;12.20;62.50;;;;;;5000405;28;20525;-68
2022/01/03 05:07:59;;;;;;;1.13;0.60;;;12.20;61.90;;;;;;5005148;28;20034;-68
2022/01/03 05:10:25;;;;;;;4.88;1.00;;;12.30;62.70;;;;;;5004101;28;20977;-68
2022/01/03 05:12:51;;;;;;;2.53;0.73;;;12.30;62.50;;;;;;5003599;28;20030;-68
2022/01/03 05:15:16;;;;;;;4.47;0.73;;;12.30;62.30;;;;;;5006333;28;20045;-68
2022/01/03 05:17:42;;;;;;;3.72;0.88;;;12.30;62.00;;;;;;5008880;28;20104;-68
2022/01/03 05:20:08;;;;;;;6.10;1.55;;;12.20;61.90;;;;;;5006487;28;20501;-68
2022/01/03 05:22:33;;;;;;;5.93;1.55;;;12.30;62.10;;;;;;5008541;28;20034;-68
2022/01/03 05:25:00;;;;;;;4.22;0.85;;;12.20;62.10;;;;;;5007060;28;20100;-68
2022/01/03 05:27:26;;;;;;;3.05;1.02;;;12.20;61.90;;;;;;5002782;28;20057;-68
2022/01/03 05:29:52;;;;;;;2.97;0.88;;;12.20;61.80;;;;;;5004527;28;20037;-67
2022/01/03 05:32:17;;;;;;;4.78;0.90;;;12.20;61.90;;;;;;5004202;28;20065;-68
2022/01/03 05:34:43;;;;;;;2.05;0.77;;;12.20;61.90;;;;;;5004643;28;20139;-68
2022/01/03 05:37:09;;;;;;;6.90;0.73;;;12.20;61.90;;;;;;5007796;28;20619;-68
2022/01/03 05:39:35;;;;;;;4.45;0.60;;;12.20;62.00;;;;;;5003869;28;20033;-68
2022/01/03 05:42:01;;;;;;;3.33;0.57;;;12.20;62.00;;;;;;5003631;28;20544;-68
2022/01/03 05:44:26;;;;;;;2.88;0.70;;;12.20;62.20;;;;;;5001830;28;20053;-69
2022/01/03 05:46:52;;;;;;;2.60;0.75;;;12.20;62.40;;;;;;5007878;28;20424;-68
2022/01/03 05:49:18;;;;;;;3.38;0.88;;;12.20;62.40;;;;;;5005372;28;20038;-69
2022/01/03 05:51:44;;;;;;;2.65;0.65;;;12.20;62.40;;;;;;5005167;28;20034;-68
2022/01/03 05:54:09;;;;;;;2.80;0.60;;;12.20;62.60;;;;;;5006077;28;20034;-68
2022/01/03 05:56:35;;;;;;;4.75;0.60;;;12.20;62.60;;;;;;5004897;28;20065;-69
2022/01/03 05:59:01;;;;;;;2.28;0.60;;;12.10;62.60;;;;;;5002508;28;20037;-68
2022/01/03 06:01:27;;;;;;;4.53;0.63;;;12.10;62.70;;;;;;5005793;28;20118;-67
2022/01/03 06:04:00;;;;;;;1.52;0.43;;;12.10;62.60;;;;;;5006922;28;20070;-68
2022/01/03 06:09:14;;;;;;;2.03;0.50;;;12.10;62.90;;;;;;5006561;28;20559;-68
2022/01/03 06:11:39;;;;;;;4.00;0.70;;;12.10;62.90;;;;;;5004832;28;20038;-68
2022/01/03 06:14:05;;;;;;;4.57;0.60;;;12.10;63.00;;;;;;4998373;28;20320;-68
2022/01/03 06:16:31;;;;;;;5.25;0.85;;;12.00;62.90;;;;;;5004985;28;20176;-68
2022/01/03 06:18:56;;;;;;;2.50;0.68;;;12.00;62.90;;;;;;5004090;28;20037;-68
2022/01/03 06:21:22;;;;;;;4.18;0.98;;;12.00;62.70;;;;;;5005662;28;20132;-68
2022/01/03 06:23:47;;;;;;;4.45;1.05;;;12.00;62.70;;;;;;5004466;28;20026;-68
2022/01/03 06:26:13;;;;;;;5.78;0.70;;;11.90;62.80;;;;;;5006542;28;20053;-68
2022/01/03 06:28:39;;;;;;;2.90;0.75;;;11.90;62.80;;;;;;5003242;28;20030;-67
2022/01/03 06:31:04;;;;;;;2.83;0.73;;;11.90;62.80;;;;;;5001430;28;20037;-68
2022/01/03 06:33:30;;;;;;;4.78;0.90;;;11.90;62.90;;;;;;4996644;28;20461;-68
2022/01/03 06:35:55;;;;;;;4.93;0.60;;;11.90;62.90;;;;;;4999893;28;20045;-68
2022/01/03 06:38:21;;;;;;;3.42;0.60;;;11.90;62.90;;;;;;4995318;28;20215;-68
2022/01/03 06:40:47;;;;;;;3.20;0.90;;;11.90;63.10;;;;;;4996560;28;20038;-67
2022/01/03 06:43:12;;;;;;;3.88;0.70;;;11.90;63.10;;;;;;4995330;28;20068;-68
2022/01/03 06:45:38;;;;;;;2.95;0.70;;;11.90;63.10;;;;;;4996324;28;20068;-69
2022/01/03 06:48:04;;;;;;;5.30;0.80;;;11.80;63.10;;;;;;5006586;28;20025;-68
2022/01/03 06:50:31;;;;;;;4.30;0.65;;;11.80;63.10;;;;;;5003692;28;20041;-68
2022/01/03 06:52:57;;;;;;;3.47;0.70;;;11.80;63.20;;;;;;5003421;28;20033;-68
2022/01/03 06:55:23;;;;;;;4.65;0.68;;;11.80;63.30;;;;;;5006772;28;20033;-68
2022/01/03 06:57:49;;;;;;;2.85;0.60;;;11.80;63.30;;;;;;5014133;28;20029;-68
2022/01/03 07:00:15;;;;;;;4.60;0.88;;;11.80;63.40;;;;;;5002711;28;20037;-68
2022/01/03 07:02:42;;;;;;;3.38;0.88;;;11.80;63.40;;;;;;5005617;28;20553;-68
2022/01/03 07:05:12;;;;;;;4.68;0.90;;;11.80;63.40;;;;;;5006368;28;20030;-68
2022/01/03 07:07:39;;;;;;;4.18;0.88;;;11.80;63.50;;;;;;5005659;28;20124;-68
2022/01/03 07:10:06;;;;;;;2.63;0.63;;;11.80;63.60;;;;;;5005660;28;20030;-68
2022/01/03 07:12:32;;;;;;;2.35;0.60;;;11.70;63.60;;;;;;5003962;28;20022;-68
2022/01/03 07:20:09;;;;;;;3.25;0.75;;;11.70;64.10;;;;;;5006091;28;20044;-68
2022/01/03 07:22:39;;;;;;;3.45;0.85;;;11.60;64.10;;;;;;5005627;28;20061;-68
2022/01/03 07:25:09;;;;;;;3.20;0.80;;;11.60;64.30;;;;;;5006861;28;20038;-68
2022/01/03 07:27:35;;;;;;;4.13;1.00;;;11.60;64.50;;;;;;5007140;28;20069;-68
2022/01/03 07:30:01;;;;;;;7.95;0.80;;;11.60;64.60;;;;;;5005799;28;20044;-68
2022/01/03 07:32:26;;;;;;;4.07;0.73;;;11.50;64.70;;;;;;5011837;28;20046;-68
2022/01/03 07:34:52;;;;;;;3.53;0.60;;;11.60;64.90;;;;;;5005113;28;20048;-68
2022/01/03 07:37:18;;;;;;;3.05;0.95;;;11.50;65.00;;;;;;5006572;28;20563;-68
2022/01/03 07:39:43;;;;;;;2.92;0.70;;;11.50;65.10;;;;;;5006581;28;20034;-68
2022/01/03 07:42:09;;;;;;;3.25;0.80;;;11.50;65.20;;;;;;5005288;28;20034;-68
2022/01/03 07:44:35;;;;;;;4.18;0.70;;;11.50;65.40;;;;;;5006109;28;20092;-68
2022/01/03 07:47:01;;;;;;;3.88;0.77;;;11.50;65.50;;;;;;5006058;28;20731;-68
2022/01/03 07:49:27;;;;;;;5.18;0.88;;;11.40;65.70;;;;;;5004879;28;20042;-68
2022/01/03 07:51:53;;;;;;;2.58;0.70;;;11.40;65.90;;;;;;5005490;28;20045;-68
2022/01/03 07:54:19;;;;;;;3.30;0.60;;;11.40;66.00;;;;;;5000355;28;20023;-68
2022/01/03 07:56:44;;;;;;;5.55;1.10;;;11.40;66.10;;;;;;5004428;28;20176;-68
2022/01/03 07:59:10;;;;;;;2.90;0.70;;;11.40;66.30;;;;;;5002821;28;20517;-67
2022/01/03 08:01:37;;;;;;;3.85;0.73;;;11.40;66.40;;;;;;4999893;28;20227;-68
2022/01/03 08:04:03;;;;;;;5.53;1.10;;;11.40;66.50;;;;;;5000431;28;20084;-68
2022/01/03 08:06:29;;;;;;;4.25;1.00;;;11.40;66.60;;;;;;5004389;28;20500;-68
2022/01/03 08:08:55;;;;;;;3.88;1.15;;;11.40;66.80;;;;;;5002525;28;20623;-67
2022/01/03 08:11:20;;;;;;;7.70;1.38;;;11.40;66.80;;;;;;4994751;28;20065;-68
2022/01/03 08:13:46;;;;;;;3.60;1.10;;;11.40;66.90;;;;;;4989468;28;21207;-67
2022/01/03 08:16:12;;;;;;;4.57;1.10;;;11.40;67.00;;;;;;4992639;28;20022;-68
2022/01/03 08:18:37;;;;;;;6.25;1.02;;;11.40;67.10;;;;;;4990120;28;20037;-66
2022/01/03 08:21:03;;;;;;;4.47;1.05;;;11.50;67.10;;;;;;4990694;28;20037;-68
2022/01/03 08:23:30;;;;;;;5.88;1.05;;;11.50;67.20;;;;;;5001890;28;20037;-68
2022/01/03 08:25:56;;;;;;;3.70;1.00;;;11.50;67.20;;;;;;4989017;28;20036;-68
2022/01/03 08:28:22;;;;;;;5.80;1.08;;;11.50;67.30;;;;;;4992835;28;20035;-66
2022/01/03 08:30:47;;;;;;;7.35;1.02;;;11.40;67.30;;;;;;4990021;28;20042;-68
2022/01/03 08:33:13;;;;;;;5.25;1.08;;;11.40;67.40;;;;;;4994487;28;20033;-66
2022/01/03 08:35:38;;;;;;;3.38;0.80;;;11.40;68.30;;;;;;4993746;28;20409;-68
2022/01/03 08:38:04;;;;;;;2.15;0.90;;;11.40;67.70;;;;;;4992292;28;20034;-67
2022/01/03 08:40:31;;;;;;;4.47;0.70;;;11.40;67.90;;;;;;4997386;28;20045;-65
2022/01/03 08:42:57;;;;;;;3.13;0.85;;;11.40;68.00;;;;;;4992632;28;20168;-68
2022/01/03 08:45:23;;;;;;;4.53;1.15;;;11.30;68.10;;;;;;4998813;28;20045;-67
2022/01/03 08:47:49;;;;;;;3.97;0.95;;;11.30;68.30;;;;;;4998859;28;20413;-68
2022/01/03 08:50:18;;;;;;;4.70;1.00;;;11.30;68.40;;;;;;4996120;28;20616;-67
2022/01/03 08:52:48;;;;;;;3.58;0.70;;;11.30;68.50;;;;;;4991892;28;20157;-67
2022/01/03 08:55:14;;;;;;;3.00;0.90;;;11.30;68.80;;;;;;4996906;28;20145;-68
2022/01/03 08:57:41;;;;;;;2.65;0.80;;;11.30;68.80;;;;;;4999916;28;20168;-68
2022/01/03 09:00:08;;;;;;;2.38;0.90;;;11.30;69.00;;;;;;4997445;28;20652;-67
2022/01/03 09:02:34;;;;;;;4.05;0.90;;;11.40;69.00;;;;;;5000335;28;20037;-67
2022/01/03 09:05:00;;;;;;;3.85;0.80;;;11.40;69.20;;;;;;4999594;28;20444;-67
2022/01/03 09:07:25;;;;;;;3.45;0.88;;;11.40;69.10;;;;;;4997064;28;20586;-68
2022/01/03 09:09:51;;;;;;;3.33;0.60;;;11.40;69.10;;;;;;5004182;28;20034;-68
2022/01/03 09:12:17;;;;;;;4.93;0.77;;;11.40;69.20;;;;;;4992386;28;20034;-68
2022/01/03 09:14:43;;;;;;;2.90;0.60;;;11.40;69.20;;;;;;5000510;28;20880;-68
2022/01/03 09:17:08;;;;;;;2.60;0.50;;;11.50;69.40;;;;;;4999329;28;20117;-68
2022/01/03 09:19:35;;;;;;;3.80;1.02;;;11.50;69.40;;;;;;5001969;28;20165;-69
2022/01/03 09:22:18;;;;;;;5.25;0.80;;;11.50;69.50;;;;;;5002512;28;20042;-68
2022/01/03 09:30:14;;;;;;;4.43;0.95;;;11.60;69.60;;;;;;4999670;28;20049;-68
2022/01/03 09:32:40;;;;;;;4.07;1.00;;;11.60;69.40;;;;;;5004422;28;20030;-68
2022/01/03 09:35:07;;;;;;;3.72;0.70;;;11.60;69.50;;;;;;5004178;28;20049;-66
2022/01/03 09:37:34;;;;;;;4.57;0.80;;;11.60;69.50;;;;;;5005024;28;20033;-68
2022/01/03 09:40:00;;;;;;;6.80;0.98;;;11.60;69.60;;;;;;5000782;28;20037;-68
2022/01/03 09:42:28;;;;;;;5.32;0.98;;;11.70;69.60;;;;;;4998901;28;20409;-68
2022/01/03 09:44:54;;;;;;;3.72;0.95;;;11.70;69.70;;;;;;5007350;28;20168;-68
2022/01/03 09:47:21;;;;;;;3.03;0.70;;;11.70;69.60;;;;;;5001875;28;20041;-68
2022/01/03 09:49:48;;;;;;;5.35;0.90;;;11.70;69.50;;;;;;5002930;28;20061;-66
2022/01/03 09:52:15;;;;;;;2.28;0.60;;;11.70;69.50;;;;;;5014276;28;20391;-68
2022/01/03 09:54:42;;;;;;;2.70;0.90;;;11.80;70.50;;;;;;5002147;28;20033;-67
2022/01/03 09:57:08;;;;;;;2.65;0.90;;;11.80;69.50;;;;;;4994663;28;20153;-66
2022/01/03 09:59:36;;;;;;;8.63;1.98;;;11.80;69.50;;;;;;5002788;28;20120;-68
2022/01/03 10:02:04;;;;;;;13.27;4.70;;;11.90;69.50;;;;;;5008190;28;20416;-68
2022/01/03 10:04:31;;;;;;;4.32;1.38;;;11.90;69.40;;;;;;5006885;28;20684;-68
2022/01/03 10:06:57;;;;;;;7.72;1.75;;;11.90;69.30;;;;;;5006104;28;20057;-67
2022/01/03 10:09:23;;;;;;;5.15;2.20;;;11.90;69.30;;;;;;5007972;28;20076;-68
2022/01/03 10:11:49;;;;;;;6.95;1.90;;;11.90;69.30;;;;;;5003635;28;20034;-68
2022/01/03 10:14:15;;;;;;;4.07;1.63;;;11.90;69.30;;;;;;5007771;28;20034;-68
2022/01/03 10:16:43;;;;;;;5.15;1.10;;;12.00;69.30;;;;;;5005858;28;20091;-68
2022/01/03 10:19:09;;;;;;;3.35;0.98;;;12.00;69.20;;;;;;5006545;28;20034;-68
2022/01/03 10:21:36;;;;;;;3.50;1.67;;;12.00;69.20;;;;;;5006998;28;20080;-68
2022/01/03 10:24:03;;;;;;;7.78;1.30;;;12.00;69.20;;;;;;5005922;28;20508;-68
2022/01/03 10:26:28;;;;;;;5.32;1.20;;;12.00;69.10;;;;;;5005549;28;20125;-68
2022/01/03 10:29:14;;;;;;;2.90;0.98;;;12.00;69.00;;;;;;5007442;28;20121;-68
2022/01/03 10:31:42;;;;;;;6.72;2.90;;;12.10;69.00;;;;;;5006189;28;20037;-67
2022/01/03 10:34:10;;;;;;;5.05;1.23;;;12.00;69.00;;;;;;5008022;28;20030;-67
2022/01/03 10:36:38;;;;;;;5.38;1.50;;;12.10;68.90;;;;;;5007729;28;20030;-68
2022/01/03 10:39:24;;;;;;;3.65;1.10;;;12.00;68.80;;;;;;5008371;28;20034;-68
2022/01/03 10:41:55;;;;;;;3.28;1.25;;;12.10;68.70;;;;;;5006492;28;20037;-68
2022/01/03 10:44:38;;;;;;;3.78;0.98;;;12.10;68.60;;;;;;5007087;28;20053;-68
2022/01/03 10:47:13;;;;;;;6.97;1.27;;;12.10;68.30;;;;;;5007091;28;20409;-68
2022/01/03 10:49:40;;;;;;;3.40;0.90;;;12.10;68.30;;;;;;5006428;28;20064;-68
2022/01/03 10:52:27;;;;;;;4.57;1.20;;;12.10;68.30;;;;;;5005408;28;20038;-68
2022/01/03 10:55:14;;;;;;;4.10;0.88;;;12.20;68.30;;;;;;5005898;28;20026;-67
2022/01/03 10:57:46;;;;;;;5.80;1.50;;;12.10;68.20;;;;;;5003895;28;20041;-68
2022/01/03 11:00:18;;;;;;;4.93;0.98;;;12.20;68.50;;;;;;5004691;28;20544;-68
2022/01/03 11:03:33;;;;;;;3.83;1.10;;;12.20;68.40;;;;;;5001465;28;21143;-67
2022/01/03 11:06:24;;;;;;;5.18;1.95;;;12.20;68.30;;;;;;5004081;28;20042;-68
2022/01/03 11:11:34;;;;;;;5.15;1.02;;;12.20;68.20;;;;;;5000834;28;20384;-67
2022/01/03 11:13:59;;;;;;;5.30;0.88;;;12.20;68.10;;;;;;5003932;28;20520;-68
2022/01/03 11:16:34;;;;;;;3.47;1.05;;;12.20;68.20;;;;;;5006097;28;20037;-69
2022/01/03 11:19:00;;;;;;;4.88;1.20;;;12.20;68.00;;;;;;5005448;28;20042;-68
2022/01/03 11:21:26;;;;;;;4.68;1.50;;;12.20;68.00;;;;;;5004325;28;20044;-67
2022/01/03 11:24:11;;;;;;;7.80;1.63;;;12.20;68.00;;;;;;5006413;28;20313;-68
2022/01/03 11:26:51;;;;;;;3.92;1.42;;;12.20;67.80;;;;;;5005654;28;20040;-69
2022/01/03 11:29:17;;;;;;;6.80;1.27;;;12.20;67.80;;;;;;5004456;28;20030;-67
2022/01/03 11:31:43;;;;;;;4.10;0.82;;;12.30;67.90;;;;;;5005922;28;20080;-68
2022/01/03 11:34:12;;;;;;;3.58;0.95;;;12.20;67.80;;;;;;5004765;28;20038;-67
2022/01/03 11:36:39;;;;;;;3.75;0.75;;;12.20;67.80;;;;;;5006017;28;20030;-68
2022/01/03 11:39:10;;;;;;;10.60;3.42;;;12.20;67.70;;;;;;5000589;28;20034;-68
2022/01/03 11:41:38;;;;;;;9.15;5.68;;;12.30;67.80;;;;;;5005316;28;20030;-68
2022/01/03 11:44:05;;;;;;;6.13;2.60;;;12.30;67.80;;;;;;5007137;28;20044;-68
2022/01/03 11:46:31;;;;;;;7.20;3.08;;;12.20;67.70;;;;;;5003321;28;20053;-68
2022/01/03 11:48:57;;;;;;;6.07;1.80;;;12.30;67.80;;;;;;5003436;28;20117;-68
2022/01/03 11:51:27;;;;;;;3.38;2.08;;;12.30;67.80;;;;;;5006638;28;20505;-67
2022/01/03 11:53:53;;;;;;;5.47;1.10;;;12.30;67.80;;;;;;5004312;28;20065;-68
2022/01/03 11:56:24;;;;;;;5.80;1.10;;;12.30;67.70;;;;;;5005949;28;20401;-68
2022/01/03 11:59:17;;;;;;;6.78;1.15;;;12.30;67.60;;;;;;5005009;28;20029;-69
2022/01/03 12:04:33;;;;;;;4.80;1.00;;;12.30;67.60;;;;;;5005301;28;20101;-68
2022/01/03 12:07:17;;;;;;;4.95;1.10;;;12.30;67.60;;;;;;5006186;28;20410;-69
2022/01/03 12:09:53;;;;;;;5.38;1.42;;;12.30;68.10;;;;;;5004650;28;20336;-68
2022/01/03 12:12:36;;;;;;;3.67;1.20;;;12.30;67.40;;;;;;5000684;28;20037;-68
2022/01/03 12:15:03;;;;;;;3.78;1.50;;;12.30;67.40;;;;;;5013070;28;20030;-68
2022/01/03 12:17:47;;;;;;;6.00;2.00;;;12.30;67.60;;;;;;5007387;28;20096;-68
2022/01/03 12:20:13;;;;;;;3.88;1.15;;;12.40;67.50;;;;;;5009123;28;20034;-68
2022/01/03 12:22:48;;;;;;;5.25;0.90;;;12.30;67.40;;;;;;5008024;28;20357;-68
2022/01/03 12:25:26;;;;;;;3.03;0.75;;;12.40;67.30;;;;;;5008719;28;20096;-68
2022/01/03 12:27:56;;;;;;;3.67;1.02;;;12.30;67.20;;;;;;5007804;28;20034;-68
2022/01/03 12:30:25;;;;;;;5.47;1.10;;;12.40;67.40;;;;;;5009434;28;20030;-68
2022/01/03 12:33:08;;;;;;;5.80;1.20;;;12.40;67.30;;;;;;5007813;28;20026;-68
2022/01/03 12:35:40;;;;;;;3.25;0.75;;;12.40;67.10;;;;;;5010220;28;20118;-68
2022/01/03 12:38:06;;;;;;;3.38;0.52;;;12.40;67.20;;;;;;5023901;28;20486;-68
2022/01/03 12:40:36;;;;;;;5.07;0.90;;;12.40;67.00;;;;;;5008715;28;20038;-69
2022/01/03 12:43:10;;;;;;;6.38;0.70;;;12.40;66.90;;;;;;5009596;28;20522;-68
2022/01/03 12:45:44;;;;;;;4.38;1.35;;;12.40;66.80;;;;;;5007591;28;20505;-68
2022/01/03 12:48:15;;;;;;;4.07;0.80;;;12.40;66.90;;;;;;5008094;28;20042;-69
2022/01/03 12:50:45;;;;;;;3.55;0.90;;;12.40;66.70;;;;;;5008574;28;20037;-68
2022/01/03 12:53:32;;;;;;;5.97;1.30;;;12.50;66.70;;;;;;5008532;28;20034;-68
2022/01/03 12:56:00;;;;;;;3.60;1.00;;;12.40;66.60;;;;;;5008167;28;20121;-68
2022/01/03 12:58:26;;;;;;;5.13;1.15;;;12.50;67.10;;;;;;5008687;28;20173;-69
2022/01/03 13:00:56;;;;;;;5.88;1.17;;;12.50;66.60;;;;;;5009358;28;20435;-68
2022/01/03 13:03:23;;;;;;;4.38;0.90;;;12.50;66.70;;;;;;5008463;28;20397;-68
2022/01/03 13:06:10;;;;;;;3.40;0.85;;;12.50;66.60;;;;;;5007360;28;20077;-68
2022/01/03 13:08:39;;;;;;;3.65;0.80;;;12.50;66.20;;;;;;5008637;28;20121;-69
2022/01/03 13:11:08;;;;;;;4.68;0.98;;;12.60;66.20;;;;;;5007131;28;20464;-68
2022/01/03 13:13:35;;;;;;;4.07;0.80;;;12.50;66.20;;;;;;5006333;28;20504;-68
2022/01/03 13:16:15;;;;;;;3.55;0.88;;;12.60;66.20;;;;;;5024735;28;20041;-68